Time;durP1;ratioP1;P1;durP2;ratioP2;P2;SDS_P1;SDS_P2;PMS_P1;PMS_P2;Temp;Humidity;BMP_temperature;BMP_pressure;BME280_temperature;BME280_humidity;BME280_pressure;Samples;Min_cycle;Max_cycle;Signal;HPM_P1;HPM_P2
2022/05/27 00:01:40;;;;;;;;;;;;;;;16.14;84.55;98444.94;1679087;83;20312;-83
2022/05/27 00:04:06;;;;;;;;;;;;;;;16.12;84.70;98445.55;1674676;85;25958;-86
2022/05/27 00:06:32;;;;;;;;;;;;;;;16.14;84.80;98444.09;1676782;85;20924;-86
2022/05/27 00:08:58;;;;;;;;;;;;;;;16.14;84.95;98442.78;1679172;85;20252;-86
2022/05/27 00:11:24;;;;;;;;;;;;;;;16.13;84.97;98441.11;1653844;86;24770;-83
2022/05/27 00:13:52;;;;;;;;;;;;;;;16.12;84.98;98445.55;1686522;85;20878;-86
2022/05/27 00:16:23;;;;;;;;;;;;;;;16.10;85.02;98436.93;1671778;85;26074;-86
2022/05/27 00:18:49;;;;;;;;;;;;;;;16.09;85.14;98434.45;1676138;85;24449;-88
2022/05/27 00:21:18;;;;;;;;;;;;;;;16.09;85.25;98435.77;1675172;85;20287;-83
2022/05/27 00:23:44;;;;;;;;;;;;;;;16.08;85.28;98432.30;1651068;86;24850;-83
2022/05/27 00:26:10;;;;;;;;;;;;;;;16.09;85.39;98429.17;1686322;85;21935;-83
2022/05/27 00:28:36;;;;;;;;;;;;;;;16.08;85.45;98430.14;1683989;85;20979;-83
2022/05/27 00:31:04;;;;;;;;;;;;;;;16.09;85.58;98425.21;1649506;86;24430;-83
2022/05/27 00:33:30;;;;;;;;;;;;;;;16.08;85.65;98419.58;1653440;86;20583;-88
2022/05/27 00:35:56;;;;;;;;;;;;;;;16.07;85.73;98422.70;1646801;86;24855;-84
2022/05/27 00:38:22;;;;;;;;;;;;;;;16.06;85.79;98419.72;1651989;86;20243;-83
2022/05/27 00:40:50;;;;;;;;;;;;;;;16.03;85.83;98421.81;1651114;86;20970;-88
2022/05/27 00:43:16;;;;;;;;;;;;;;;16.02;85.96;98417.02;1647746;86;25313;-88
2022/05/27 00:45:47;;;;;;;;;;;;;;;16.03;86.06;98410.77;1653413;86;20187;-83
2022/05/27 00:48:15;;;;;;;;;;;;;;;16.04;86.18;98412.93;1679405;85;24824;-83
2022/05/27 00:50:42;;;;;;;;;;;;;;;16.03;86.21;98412.58;1687017;84;22039;-83
2022/05/27 00:53:11;;;;;;;;;;;;;;;16.02;86.28;98413.55;1648515;85;26741;-83
2022/05/27 00:55:40;;;;;;;;;;;;;;;16.03;86.34;98409.45;1650259;84;24496;-83
2022/05/27 00:58:07;;;;;;;;;;;;;;;16.04;86.45;98403.69;1651091;85;20498;-83
2022/05/27 01:00:36;;;;;;;;;;;;;;;16.05;86.55;98400.88;1651915;85;25505;-82
2022/05/27 01:03:07;;;;;;;;;;;;;;;16.05;86.63;98406.16;1640073;86;22066;-82
2022/05/27 01:05:33;;;;;;;;;;;;;;;16.05;86.67;98401.37;1640707;86;26594;-83
2022/05/27 01:08:02;;;;;;;;;;;;;;;16.04;86.74;98399.73;1641515;86;24514;-82
2022/05/27 01:10:30;;;;;;;;;;;;;;;16.03;86.77;98398.89;1624117;86;20293;-83
2022/05/27 01:13:10;;;;;;;;;;;;;;;16.00;86.82;98397.84;1624448;88;24825;-87
2022/05/27 01:15:43;;;;;;;;;;;;;;;15.96;86.79;98392.50;1612025;87;22668;-89
2022/05/27 01:18:21;;;;;;;;;;;;;;;15.94;86.76;98393.13;1619946;87;26062;-88
2022/05/27 01:20:49;;;;;;;;;;;;;;;15.92;86.75;98391.13;1651364;85;24452;-89
2022/05/27 01:23:34;;;;;;;;;;;;;;;15.94;86.77;98392.28;1617711;87;20269;-84
2022/05/27 01:26:04;;;;;;;;;;;;;;;15.90;86.80;98383.34;1632324;87;24786;-83
2022/05/27 01:28:44;;;;;;;;;;;;;;;15.86;86.86;98378.50;1636184;87;21981;-84
2022/05/27 01:31:20;;;;;;;;;;;;;;;15.85;86.87;98375.02;1644009;85;26102;-84
2022/05/27 01:34:04;;;;;;;;;;;;;;;15.85;86.96;98374.19;1640287;86;24490;-84
2022/05/27 01:36:37;;;;;;;;;;;;;;;15.82;87.04;98375.77;1637659;86;20314;-87
2022/05/27 01:39:08;;;;;;;;;;;;;;;15.83;87.10;98372.16;1592038;89;24759;-87
2022/05/27 01:41:43;;;;;;;;;;;;;;;15.81;87.08;98374.13;1628916;87;22736;-86
2022/05/27 01:44:11;;;;;;;;;;;;;;;15.80;87.10;98371.14;1634118;86;25940;-86
2022/05/27 01:46:39;;;;;;;;;;;;;;;15.78;87.16;98369.95;1633747;87;24443;-86
2022/05/27 01:49:20;;;;;;;;;;;;;;;15.77;87.22;98366.97;1634137;87;20780;-87
2022/05/27 01:51:48;;;;;;;;;;;;;;;15.77;87.33;98366.12;1630072;86;24756;-87
2022/05/27 01:54:27;;;;;;;;;;;;;;;15.73;87.39;98368.23;1607052;88;21556;-84
2022/05/27 01:56:58;;;;;;;;;;;;;;;15.71;87.41;98364.08;1607822;89;26036;-86
2022/05/27 01:59:31;;;;;;;;;;;;;;;15.68;87.48;98365.19;1604729;89;24491;-84
2022/05/27 02:01:59;;;;;;;;;;;;;;;15.70;87.64;98361.93;1605508;88;20219;-83
2022/05/27 02:04:38;;;;;;;;;;;;;;;15.69;87.76;98359.42;1611472;89;25516;-83
2022/05/27 02:07:24;;;;;;;;;;;;;;;15.66;87.87;98353.92;1607819;87;21948;-86
2022/05/27 02:09:52;;;;;;;;;;;;;;;15.66;87.94;98350.45;1611182;89;26148;-84
2022/05/27 02:12:22;;;;;;;;;;;;;;;15.66;88.05;98359.69;1611266;89;25172;-84
2022/05/27 02:14:53;;;;;;;;;;;;;;;15.66;88.12;98350.45;1610091;89;20251;-84
2022/05/27 02:17:21;;;;;;;;;;;;;;;15.64;88.17;98351.09;1611993;89;24861;-84
2022/05/27 02:19:51;;;;;;;;;;;;;;;15.63;88.20;98349.42;1611887;89;22115;-84
2022/05/27 02:22:22;;;;;;;;;;;;;;;15.62;88.31;98345.12;1607774;88;26055;-83
2022/05/27 02:24:51;;;;;;;;;;;;;;;15.62;88.34;98343.31;1610401;89;24719;-84
2022/05/27 02:27:25;;;;;;;;;;;;;;;15.60;88.44;98345.77;1611443;88;20673;-82
2022/05/27 02:29:55;;;;;;;;;;;;;;;15.56;88.47;98339.92;1611722;89;24807;-87
2022/05/27 02:32:22;;;;;;;;;;;;;;;15.56;88.53;98343.88;1610194;88;22013;-87
2022/05/27 02:35:09;;;;;;;;;;;;;;;15.54;88.62;98333.97;1610329;88;26686;-87
2022/05/27 02:37:42;;;;;;;;;;;;;;;15.53;88.73;98338.89;1611955;88;24557;-87
2022/05/27 02:40:10;;;;;;;;;;;;;;;15.52;88.84;98334.59;1612087;89;20262;-86
2022/05/27 02:42:38;;;;;;;;;;;;;;;15.48;89.05;98331.37;1608510;89;24852;-86
2022/05/27 02:45:17;;;;;;;;;;;;;;;15.48;89.25;98334.02;1611435;89;22008;-86
2022/05/27 02:47:46;;;;;;;;;;;;;;;15.44;89.39;98329.97;1610455;89;26100;-86
2022/05/27 02:50:14;;;;;;;;;;;;;;;15.41;89.48;98329.42;1611798;89;24572;-87
2022/05/27 02:52:47;;;;;;;;;;;;;;;15.41;89.53;98324.16;1629334;86;20500;-88
2022/05/27 02:55:15;;;;;;;;;;;;;;;15.36;89.69;98327.21;1632201;87;24802;-84
2022/05/27 02:57:49;;;;;;;;;;;;;;;15.34;89.70;98315.96;1634253;87;22132;-86
2022/05/27 03:00:17;;;;;;;;;;;;;;;15.35;89.79;98312.84;1634230;87;26699;-87
2022/05/27 03:02:43;;;;;;;;;;;;;;;15.32;89.88;98312.65;1630857;87;24534;-84
2022/05/27 03:05:10;;;;;;;;;;;;;;;15.30;89.95;98313.75;1638039;87;20363;-84
2022/05/27 03:07:56;;;;;;;;;;;;;;;15.29;90.03;98316.87;1632670;87;24828;-84
2022/05/27 03:10:23;;;;;;;;;;;;;;;15.28;90.13;98319.63;1633384;87;21872;-84
2022/05/27 03:12:55;;;;;;;;;;;;;;;15.25;90.18;98314.66;1636586;87;25992;-84
2022/05/27 03:15:23;;;;;;;;;;;;;;;15.23;90.23;98306.04;1634971;87;24568;-83
2022/05/27 03:18:07;;;;;;;;;;;;;;;15.22;90.36;98307.84;1633858;87;20213;-83
2022/05/27 03:20:42;;;;;;;;;;;;;;;15.22;90.44;98311.80;1633133;87;24781;-83
2022/05/27 03:23:13;;;;;;;;;;;;;;;15.24;90.59;98307.23;1636497;87;22545;-83
2022/05/27 03:25:55;;;;;;;;;;;;;;;15.20;90.73;98301.06;1637535;87;26122;-87
2022/05/27 03:28:23;;;;;;;;;;;;;;;15.19;90.81;98306.81;1638117;87;25195;-88
2022/05/27 03:30:51;;;;;;;;;;;;;;;15.16;90.87;98307.11;1640095;87;20257;-83
2022/05/27 03:33:19;;;;;;;;;;;;;;;15.13;90.94;98304.73;1630818;87;24818;-83
2022/05/27 03:35:47;;;;;;;;;;;;;;;15.11;91.06;98309.30;1638640;87;21964;-83
2022/05/27 03:38:31;;;;;;;;;;;;;;;15.18;91.37;98302.51;1637020;87;25993;-86
2022/05/27 03:41:02;;;;;;;;;;;;;;;15.22;91.52;98305.72;1638409;87;24515;-85
2022/05/27 03:43:29;;;;;;;;;;;;;;;15.25;91.66;98302.79;1638197;87;20404;-86
2022/05/27 03:45:57;;;;;;;;;;;;;;;15.35;92.00;98299.66;1636160;87;25541;-87
2022/05/27 03:48:26;;;;;;;;;;;;;;;15.43;92.34;98298.48;1634792;87;22197;-85
2022/05/27 03:50:59;;;;;;;;;;;;;;;15.57;92.78;98297.23;1636776;87;26784;-88
2022/05/27 03:54:03;;;;;;;;;;;;;;;15.76;93.08;98294.08;1637431;87;24481;-86
2022/05/27 03:55:53;;;;;;;;;;;;;;;15.84;93.12;98285.43;1638772;87;20604;-88
2022/05/27 03:58:19;;;;;;;;;;;;;;;15.88;93.02;98291.59;1638297;87;20308;-87
2022/05/27 04:00:45;;;;;;;;;;;;;;;16.03;93.14;98290.66;1637164;87;20314;-87
2022/05/27 04:03:12;;;;;;;;;;;;;;;16.16;93.28;98299.55;1638528;87;26139;-87
2022/05/27 04:05:39;;;;;;;;;;;;;;;16.24;93.24;98293.91;1640511;87;24518;-87
2022/05/27 04:08:05;;;;;;;;;;;;;;;16.38;93.20;98294.37;1638939;87;20259;-87
2022/05/27 04:10:31;;;;;;;;;;;;;;;16.50;93.19;98294.53;1641362;87;24748;-88
2022/05/27 04:12:57;;;;;;;;;;;;;;;16.63;93.31;98291.92;1640329;86;20239;-88
2022/05/27 04:15:29;;;;;;;;;;;;;;;16.65;92.89;98298.36;1635201;87;26596;-87
2022/05/27 04:17:56;;;;;;;;;;;;;;;16.58;92.35;98293.31;1639284;87;24510;-88
2022/05/27 04:20:23;;;;;;;;;;;;;;;16.48;91.92;98292.02;1637354;87;20174;-88
2022/05/27 04:22:54;;;;;;;;;;;;;;;16.42;91.69;98283.88;1643207;86;25028;-88
2022/05/27 04:25:20;;;;;;;;;;;;;;;16.35;91.34;98290.23;1617928;87;22103;-86
2022/05/27 04:27:46;;;;;;;;;;;;;;;16.27;91.20;98286.99;1635421;87;26130;-86
2022/05/27 04:30:12;;;;;;;;;;;;;;;16.18;91.02;98286.56;1635582;87;24424;-85
2022/05/27 04:32:38;;;;;;;;;;;;;;;16.19;91.07;98284.75;1634226;87;20578;-83
2022/05/27 04:35:05;;;;;;;;;;;;;;;16.25;91.31;98281.05;1633904;87;20243;-83
2022/05/27 04:37:34;;;;;;;;;;;;;;;16.29;91.43;98281.09;1634804;87;22195;-87
2022/05/27 04:39:59;;;;;;;;;;;;;;;16.29;91.54;98281.58;1637888;87;26686;-85
2022/05/27 04:42:25;;;;;;;;;;;;;;;16.28;91.63;98276.78;1636789;87;20259;-87
2022/05/27 04:44:53;;;;;;;;;;;;;;;16.24;91.59;98277.22;1631428;87;20496;-85
2022/05/27 04:47:19;;;;;;;;;;;;;;;16.23;91.64;98279.03;1628804;87;24984;-85
2022/05/27 04:49:51;;;;;;;;;;;;;;;16.24;91.74;98275.91;1636607;87;20287;-85
2022/05/27 04:52:19;;;;;;;;;;;;;;;16.26;91.91;98273.44;1636454;87;26298;-87
2022/05/27 04:54:45;;;;;;;;;;;;;;;16.23;91.86;98273.75;1627563;86;24522;-88
2022/05/27 04:57:13;;;;;;;;;;;;;;;16.18;91.86;98265.44;1626927;87;20880;-85
2022/05/27 04:59:39;;;;;;;;;;;;;;;16.16;91.82;98270.02;1659956;86;24802;-85
2022/05/27 05:02:05;;;;;;;;;;;;;;;16.16;91.98;98266.06;1661581;85;22140;-82
2022/05/27 05:04:31;;;;;;;;;;;;;;;16.19;92.21;98270.23;1664308;86;26176;-83
2022/05/27 05:07:00;;;;;;;;;;;;;;;16.20;92.45;98262.14;1666551;85;24431;-86
2022/05/27 05:09:26;;;;;;;;;;;;;;;16.23;92.68;98260.55;1662649;85;20252;-86
2022/05/27 05:11:52;;;;;;;;;;;;;;;16.29;92.90;98260.45;1664291;86;20245;-86
2022/05/27 05:14:18;;;;;;;;;;;;;;;16.35;93.03;98262.99;1665016;84;20814;-85
2022/05/27 05:16:44;;;;;;;;;;;;;;;16.40;93.24;98266.02;1664554;86;21152;-86
2022/05/27 05:19:10;;;;;;;;;;;;;;;16.47;93.51;98271.90;1663872;86;20372;-86
2022/05/27 05:21:36;;;;;;;;;;;;;;;16.55;93.92;98264.05;1664920;86;20795;-85
2022/05/27 05:24:03;;;;;;;;;;;;;;;16.60;94.15;98261.81;1663908;86;24761;-85
2022/05/27 05:26:29;;;;;;;;;;;;;;;16.67;94.42;98257.61;1664439;86;21937;-85
2022/05/27 05:28:55;;;;;;;;;;;;;;;16.70;94.46;98253.81;1664071;85;21054;-86
2022/05/27 05:31:21;;;;;;;;;;;;;;;16.73;94.42;98257.02;1662023;86;20288;-85
2022/05/27 05:33:47;;;;;;;;;;;;;;;16.72;94.49;98255.34;1664432;85;20863;-85
2022/05/27 05:36:13;;;;;;;;;;;;;;;16.79;94.61;98250.78;1664405;86;20805;-85
2022/05/27 05:38:39;;;;;;;;;;;;;;;16.80;94.61;98251.12;1665020;86;21995;-85
2022/05/27 05:41:05;;;;;;;;;;;;;;;16.85;94.73;98250.19;1665205;86;21014;-83
2022/05/27 05:43:32;;;;;;;;;;;;;;;16.88;94.67;98249.38;1664581;86;24725;-83
2022/05/27 05:45:58;;;;;;;;;;;;;;;16.90;94.59;98246.11;1663153;85;20335;-83
2022/05/27 05:48:24;;;;;;;;;;;;;;;16.91;94.46;98242.98;1662812;85;24845;-83
2022/05/27 05:50:51;;;;;;;;;;;;;;;16.95;94.42;98248.30;1664578;86;20334;-83
2022/05/27 05:53:19;;;;;;;;;;;;;;;16.97;94.46;98244.50;1666604;84;26008;-85
2022/05/27 05:55:45;;;;;;;;;;;;;;;17.01;94.43;98252.48;1670185;85;24470;-87
2022/05/27 05:58:12;;;;;;;;;;;;;;;17.04;94.55;98246.05;1669743;85;20550;-85
2022/05/27 06:00:37;;;;;;;;;;;;;;;17.09;94.67;98240.64;1669887;85;20243;-85
2022/05/27 06:03:03;;;;;;;;;;;;;;;17.13;94.75;98235.38;1665938;85;20810;-83
2022/05/27 06:05:29;;;;;;;;;;;;;;;17.17;94.54;98233.77;1672553;85;26172;-82
2022/05/27 06:07:56;;;;;;;;;;;;;;;17.19;94.24;98239.72;1668594;85;20330;-85
2022/05/27 06:10:22;;;;;;;;;;;;;;;17.23;94.35;98233.99;1670092;85;20217;-85
2022/05/27 06:12:49;;;;;;;;;;;;;;;17.31;94.49;98228.75;1670515;85;24726;-85
2022/05/27 06:15:16;;;;;;;;;;;;;;;17.43;94.88;98231.97;1671926;85;22226;-85
2022/05/27 06:17:42;;;;;;;;;;;;;;;17.49;94.86;98235.33;1670051;85;26127;-85
2022/05/27 06:20:09;;;;;;;;;;;;;;;17.51;94.65;98230.72;1672263;85;24428;-85
2022/05/27 06:22:44;;;;;;;;;;;;;;;17.54;94.46;98233.05;1668764;85;20227;-86
2022/05/27 06:25:11;;;;;;;;;;;;;;;17.54;94.22;98222.45;1670150;85;24867;-83
2022/05/27 06:27:37;;;;;;;;;;;;;;;17.58;94.07;98225.13;1672388;85;22754;-83
2022/05/27 06:35:47;;;;;;;;;;;;;;;17.85;94.51;98217.03;1669442;85;20335;-82
2022/05/27 06:38:13;;;;;;;;;;;;;;;17.96;94.58;98215.92;1667224;85;24933;-83
2022/05/27 06:40:40;;;;;;;;;;;;;;;18.07;94.54;98210.84;1668826;85;20822;-86
2022/05/27 06:43:07;;;;;;;;;;;;;;;18.17;94.43;98210.21;1665585;85;26186;-82
2022/05/27 06:45:36;;;;;;;;;;;;;;;18.27;94.35;98206.96;1667764;85;24537;-83
2022/05/27 06:48:04;;;;;;;;;;;;;;;18.32;93.97;98213.93;1670300;85;20479;-85
2022/05/27 06:50:36;;;;;;;;;;;;;;;18.36;93.50;98204.16;1671365;85;24832;-88
2022/05/27 06:53:00;;;;;;;;;;;;;;;18.38;93.15;98213.28;1670943;85;22134;-85
2022/05/27 06:55:27;;;;;;;;;;;;;;;18.38;92.54;98211.96;1676886;85;26615;-83
2022/05/27 06:57:53;;;;;;;;;;;;;;;18.43;92.31;98206.17;1650321;85;24484;-83
2022/05/27 07:00:20;;;;;;;;;;;;;;;18.52;92.11;98197.23;1672063;85;20486;-83
2022/05/27 07:02:46;;;;;;;;;;;;;;;18.58;91.78;98193.48;1673588;85;24816;-85
2022/05/27 07:05:18;;;;;;;;;;;;;;;18.68;91.70;98192.83;1672933;85;21995;-86
2022/05/27 07:07:44;;;;;;;;;;;;;;;18.74;91.59;98196.64;1675040;85;25967;-86
2022/05/27 07:10:12;;;;;;;;;;;;;;;18.72;91.03;98196.80;1672591;85;25322;-83
2022/05/27 07:12:39;;;;;;;;;;;;;;;18.68;90.54;98190.17;1684316;85;20271;-83
2022/05/27 07:15:05;;;;;;;;;;;;;;;18.69;90.21;98179.08;1674459;85;24806;-82
2022/05/27 07:17:37;;;;;;;;;;;;;;;18.77;90.39;98183.88;1674548;85;21927;-83
2022/05/27 07:20:03;;;;;;;;;;;;;;;18.84;90.35;98178.75;1680911;85;26155;-83
2022/05/27 07:22:31;;;;;;;;;;;;;;;18.91;90.21;98177.10;1680425;85;24530;-83
2022/05/27 07:24:58;;;;;;;;;;;;;;;18.98;90.29;98164.02;1673368;85;20254;-83
2022/05/27 07:27:23;;;;;;;;;;;;;;;19.07;90.13;98160.35;1673856;83;24842;-85
2022/05/27 07:29:51;;;;;;;;;;;;;;;19.19;90.31;98153.71;1668497;85;20946;-85
2022/05/27 07:32:19;;;;;;;;;;;;;;;19.28;89.93;98158.00;1679740;83;23271;-87
2022/05/27 07:34:47;;;;;;;;;;;;;;;19.36;89.97;98157.17;1705984;84;20284;-88
2022/05/27 07:37:14;;;;;;;;;;;;;;;19.45;89.99;98150.38;1704986;84;20315;-83
2022/05/27 07:39:40;;;;;;;;;;;;;;;19.50;89.48;98144.55;1705569;84;24669;-83
2022/05/27 07:42:06;;;;;;;;;;;;;;;19.56;89.14;98142.05;1705335;84;20910;-85
2022/05/27 07:44:32;;;;;;;;;;;;;;;19.59;88.24;98129.74;1705147;82;21087;-86
2022/05/27 07:46:58;;;;;;;;;;;;;;;19.64;87.68;98122.58;1705413;84;24537;-83
2022/05/27 07:49:24;;;;;;;;;;;;;;;19.64;86.64;98121.26;1705129;84;20333;-83
2022/05/27 07:51:50;;;;;;;;;;;;;;;19.68;86.09;98126.58;1704816;82;20755;-83
2022/05/27 07:54:18;;;;;;;;;;;;;;;19.75;85.98;98124.87;1705690;84;22047;-83
2022/05/27 07:56:45;;;;;;;;;;;;;;;19.75;85.16;98124.03;1704037;84;26617;-83
2022/05/27 07:59:11;;;;;;;;;;;;;;;19.75;84.68;98110.76;1704994;84;24476;-85
2022/05/27 08:01:37;;;;;;;;;;;;;;;19.84;84.49;98101.28;1706354;84;20414;-88
2022/05/27 08:04:04;;;;;;;;;;;;;;;19.94;84.56;98094.41;1706644;84;24946;-86
2022/05/27 08:06:30;;;;;;;;;;;;;;;20.02;84.41;98083.73;1705059;84;21937;-83
2022/05/27 08:08:56;;;;;;;;;;;;;;;20.14;84.42;98086.81;1705585;84;20979;-88
2022/05/27 08:11:32;;;;;;;;;;;;;;;20.20;84.08;98082.13;1705644;84;24450;-88
2022/05/27 08:14:00;;;;;;;;;;;;;;;20.27;83.82;98074.62;1705545;84;20257;-86
2022/05/27 08:16:32;;;;;;;;;;;;;;;20.37;83.60;98073.91;1704992;84;25475;-85
2022/05/27 08:18:58;;;;;;;;;;;;;;;20.52;83.63;98067.30;1705187;82;22511;-85
2022/05/27 08:21:25;;;;;;;;;;;;;;;20.61;83.02;98084.86;1705236;84;26085;-84
2022/05/27 08:23:52;;;;;;;;;;;;;;;20.73;83.02;98086.59;1706655;84;24462;-83
2022/05/27 08:26:18;;;;;;;;;;;;;;;20.75;81.58;98086.72;1706490;84;20265;-83
2022/05/27 08:28:44;;;;;;;;;;;;;;;20.82;81.08;98083.68;1705340;84;24816;-83
2022/05/27 08:31:10;;;;;;;;;;;;;;;20.94;80.86;98085.91;1705275;83;21974;-83
2022/05/27 08:39:08;;;;;;;;;;;;;;;21.31;80.22;98077.06;1706184;84;20289;-84
2022/05/27 08:41:49;;;;;;;;;;;;;;;21.33;79.54;98070.53;1705314;84;24812;-84
2022/05/27 08:44:17;;;;;;;;;;;;;;;21.33;78.59;98067.06;1701269;82;208787;-85
2022/05/27 08:46:48;;;;;;;;;;;;;;;21.34;77.89;98073.52;1707334;82;26104;-84
2022/05/27 08:49:23;;;;;;;;;;;;;;;21.23;76.53;98081.45;1704739;83;24520;-84
2022/05/27 08:51:57;;;;;;;;;;;;;;;21.23;75.98;98068.14;1705704;84;20276;-84
2022/05/27 08:54:25;;;;;;;;;;;;;;;21.15;75.22;98070.91;1703668;84;24776;-85
2022/05/27 08:59:47;;;;;;;;;;;;;;;21.16;74.26;98067.75;1703069;84;26058;-89
2022/05/27 09:02:22;;;;;;;;;;;;;;;21.31;74.25;98069.08;1705240;84;25179;-89
2022/05/27 09:07:50;;;;;;;;;;;;;;;21.41;73.28;98073.61;1704954;84;24724;-89
2022/05/27 09:10:17;;;;;;;;;;;;;;;21.58;73.36;98073.24;1705627;84;22593;-89
2022/05/27 09:12:59;;;;;;;;;;;;;;;21.60;72.31;98068.53;1705938;82;26058;-84
2022/05/27 09:15:39;;;;;;;;;;;;;;;21.64;72.00;98062.35;1704081;83;24460;-84
2022/05/27 09:18:06;;;;;;;;;;;;;;;21.51;70.70;98050.19;1705254;84;20273;-84
2022/05/27 09:20:40;;;;;;;;;;;;;;;21.43;70.20;98059.63;1703989;84;24814;-90
2022/05/27 09:23:14;;;;;;;;;;;;;;;21.43;70.21;98058.30;1675806;84;21993;-86
2022/05/27 09:25:54;;;;;;;;;;;;;;;21.46;70.16;98052.08;1705917;84;26283;-86
2022/05/27 09:28:21;;;;;;;;;;;;;;;21.46;69.71;98032.11;1705041;83;24539;-86
2022/05/27 09:30:50;;;;;;;;;;;;;;;21.50;69.06;98029.89;1705411;84;20186;-89
2022/05/27 09:33:18;;;;;;;;;;;;;;;21.56;68.74;98029.16;1703242;83;24769;-83
2022/05/27 09:35:46;;;;;;;;;;;;;;;21.58;68.40;98025.81;1703206;84;21649;-84
2022/05/27 09:38:29;;;;;;;;;;;;;;;21.69;68.67;98020.00;1703048;83;26023;-83
2022/05/27 09:41:02;;;;;;;;;;;;;;;21.79;68.54;98021.03;1704077;84;25244;-84
2022/05/27 09:43:37;;;;;;;;;;;;;;;22.00;69.11;98025.08;1704158;84;20284;-83
2022/05/27 09:46:06;;;;;;;;;;;;;;;22.06;68.74;98020.33;1675972;84;25477;-83
2022/05/27 09:48:32;;;;;;;;;;;;;;;22.02;68.02;98031.88;1704714;84;22076;-83
2022/05/27 09:51:00;;;;;;;;;;;;;;;22.03;67.72;98032.71;1703676;84;25922;-83
2022/05/27 09:53:28;;;;;;;;;;;;;;;21.90;66.93;98032.02;1701606;84;24517;-84
2022/05/27 09:55:57;;;;;;;;;;;;;;;21.76;66.32;98033.41;1702133;84;20276;-86
2022/05/27 09:58:25;;;;;;;;;;;;;;;21.63;65.63;98022.08;1704491;84;24791;-86
2022/05/27 10:00:52;;;;;;;;;;;;;;;21.61;65.16;98017.43;1702697;84;22691;-86
2022/05/27 10:03:44;;;;;;;;;;;;;;;21.62;64.80;98016.42;1702490;84;26139;-89
2022/05/27 10:06:09;;;;;;;;;;;;;;;21.64;64.49;98002.42;1701238;84;24446;-89
2022/05/27 10:08:48;;;;;;;;;;;;;;;21.67;63.90;97992.22;1705127;84;20221;-89
2022/05/27 10:11:16;;;;;;;;;;;;;;;21.78;63.68;97989.56;1702525;84;25447;-88
2022/05/27 10:13:45;;;;;;;;;;;;;;;21.85;62.85;97988.31;1703315;84;22161;-86
2022/05/27 10:16:16;;;;;;;;;;;;;;;21.98;62.64;97993.81;1704721;84;26179;-83
2022/05/27 10:18:44;;;;;;;;;;;;;;;22.04;62.63;97992.52;1704091;84;24528;-83
2022/05/27 10:21:12;;;;;;;;;;;;;;;22.03;62.36;97992.23;1704389;84;20243;-83
2022/05/27 10:23:39;;;;;;;;;;;;;;;21.97;61.62;98004.16;1703220;82;24964;-83
2022/05/27 10:26:19;;;;;;;;;;;;;;;21.88;61.27;97991.91;1704327;84;21670;-83
2022/05/27 10:28:47;;;;;;;;;;;;;;;21.76;60.74;97992.94;1703022;84;26634;-86
2022/05/27 10:31:17;;;;;;;;;;;;;;;21.69;60.37;97992.86;1705110;82;24425;-89
2022/05/27 10:33:44;;;;;;;;;;;;;;;21.73;60.34;97974.66;1719835;82;20276;-85
2022/05/27 10:36:29;;;;;;;;;;;;;;;21.75;60.39;97971.30;1726195;82;24400;-86
2022/05/27 10:39:03;;;;;;;;;;;;;;;21.86;60.13;97967.31;1726427;83;21910;-84
2022/05/27 10:41:31;;;;;;;;;;;;;;;22.02;60.11;97951.94;1724956;81;25956;-84
2022/05/27 10:44:05;;;;;;;;;;;;;;;22.19;59.78;97963.66;1724239;83;24580;-84
2022/05/27 10:46:32;;;;;;;;;;;;;;;22.45;60.47;97962.03;1724776;83;20371;-84
2022/05/27 10:49:16;;;;;;;;;;;;;;;22.71;60.59;97953.89;1725820;83;25448;-89
2022/05/27 10:51:48;;;;;;;;;;;;;;;23.00;61.28;97954.20;1724938;83;21976;-89
2022/05/27 10:54:34;;;;;;;;;;;;;;;23.07;60.69;97947.06;1725990;82;26772;-89
2022/05/27 11:02:53;;;;;;;;;;;;;;;22.87;58.56;97926.42;1724588;83;24784;-89
2022/05/27 11:05:36;;;;;;;;;;;;;;;22.73;57.91;97936.72;1726622;81;22154;-84
2022/05/27 11:08:04;;;;;;;;;;;;;;;22.75;57.95;97930.66;1725180;83;26013;-89
2022/05/27 11:10:37;;;;;;;;;;;;;;;22.70;57.71;97921.56;1727863;81;25265;-89
2022/05/27 11:16:15;;;;;;;;;;;;;;;22.58;57.33;97932.48;1726292;81;24847;-83
2022/05/27 11:18:46;;;;;;;;;;;;;;;22.50;57.21;97928.94;1726895;83;22068;-83
2022/05/27 11:21:26;;;;;;;;;;;;;;;22.45;57.39;97915.37;1722628;83;26062;-83
2022/05/27 11:23:55;;;;;;;;;;;;;;;22.26;57.09;97914.70;1725257;83;24592;-83
2022/05/27 11:26:32;;;;;;;;;;;;;;;22.20;57.28;97916.00;1726058;83;20224;-86
2022/05/27 11:29:02;;;;;;;;;;;;;;;22.22;57.73;97915.28;1726871;81;24812;-84
2022/05/27 11:31:33;;;;;;;;;;;;;;;22.23;58.15;97905.77;1726091;83;22089;-84
2022/05/27 11:34:13;;;;;;;;;;;;;;;22.23;58.31;97914.27;1711304;82;26029;-86
2022/05/27 11:36:41;;;;;;;;;;;;;;;22.18;58.52;97904.19;1705549;84;25112;-86
2022/05/27 11:39:09;;;;;;;;;;;;;;;22.13;58.54;97913.28;1703711;82;21106;-84
2022/05/27 11:41:46;;;;;;;;;;;;;;;22.14;58.52;97915.44;1703666;84;24722;-84
2022/05/27 11:44:18;;;;;;;;;;;;;;;22.15;58.67;97907.23;1704066;84;22016;-89
2022/05/27 11:46:46;;;;;;;;;;;;;;;22.17;58.95;97912.37;1705163;84;26773;-84
2022/05/27 11:49:17;;;;;;;;;;;;;;;22.17;59.26;97913.70;1706300;84;24470;-88
2022/05/27 11:51:53;;;;;;;;;;;;;;;22.10;59.24;97916.31;1704330;84;20587;-84
2022/05/27 11:54:21;;;;;;;;;;;;;;;22.06;59.42;97921.21;1705127;82;24777;-83
2022/05/27 11:56:53;;;;;;;;;;;;;;;22.04;59.50;97917.91;1706073;84;22607;-88
2022/05/27 11:59:20;;;;;;;;;;;;;;;22.04;59.68;97920.56;1704159;84;25912;-84
2022/05/27 12:02:07;;;;;;;;;;;;;;;22.09;60.21;97916.02;1706585;84;24538;-84
2022/05/27 12:04:52;;;;;;;;;;;;;;;22.11;60.45;97921.96;1705224;84;20194;-86
2022/05/27 12:07:37;;;;;;;;;;;;;;;22.05;60.45;97920.06;1704573;84;24713;-86
2022/05/27 12:10:10;;;;;;;;;;;;;;;21.98;60.60;97921.33;1704379;84;22043;-85
2022/05/27 12:12:39;;;;;;;;;;;;;;;21.85;60.64;97907.88;1704475;84;26808;-84
2022/05/27 12:15:11;;;;;;;;;;;;;;;21.83;60.85;97907.23;1705249;84;25212;-83
2022/05/27 12:17:42;;;;;;;;;;;;;;;21.86;61.53;97906.87;1706532;82;20265;-83
2022/05/27 12:20:09;;;;;;;;;;;;;;;21.85;61.82;97898.55;1706948;84;25551;-83
2022/05/27 12:22:35;;;;;;;;;;;;;;;21.77;61.79;97899.17;1705973;84;21955;-83
2022/05/27 12:25:03;;;;;;;;;;;;;;;21.73;62.21;97889.41;1705506;84;21066;-89
2022/05/27 12:27:29;;;;;;;;;;;;;;;21.68;62.36;97893.16;1705051;84;24546;-84
2022/05/27 12:29:58;;;;;;;;;;;;;;;21.72;62.85;97893.09;1705320;84;20166;-85
2022/05/27 12:32:27;;;;;;;;;;;;;;;21.84;63.52;97886.24;1705501;84;24981;-89
2022/05/27 12:34:55;;;;;;;;;;;;;;;21.88;63.99;97888.83;1715626;83;21958;-84
2022/05/27 12:37:25;;;;;;;;;;;;;;;21.86;64.07;97900.20;1711112;83;26194;-85
2022/05/27 12:39:53;;;;;;;;;;;;;;;21.84;64.28;97900.06;1712955;83;24491;-84
2022/05/27 12:42:26;;;;;;;;;;;;;;;21.73;64.18;97896.08;1714767;83;20253;-84
2022/05/27 12:44:55;;;;;;;;;;;;;;;21.62;64.26;97907.23;1715561;83;25652;-84
2022/05/27 12:47:24;;;;;;;;;;;;;;;21.54;64.39;97902.88;1715487;83;22744;-87
2022/05/27 12:49:52;;;;;;;;;;;;;;;21.50;64.66;97908.73;1715419;82;26021;-89
2022/05/27 12:52:32;;;;;;;;;;;;;;;21.47;64.87;97910.46;1711180;83;24524;-86
2022/05/27 12:55:05;;;;;;;;;;;;;;;21.49;65.36;97913.23;1715580;83;20299;-84
2022/05/27 13:03:11;;;;;;;;;;;;;;;21.33;66.46;98001.84;1716073;83;26164;-84
2022/05/27 13:08:30;;;;;;;;;;;;;;;19.96;66.20;98030.00;1719120;83;20485;-86
2022/05/27 13:10:56;;;;;;;;;;;;;;;19.29;66.08;98037.60;1719390;80;24902;-84
2022/05/27 13:13:24;;;;;;;;;;;;;;;18.95;66.27;98045.81;1715336;83;20232;-89
2022/05/27 13:15:55;;;;;;;;;;;;;;;18.53;66.27;98069.04;1714750;83;28246;-89
2022/05/27 13:18:32;;;;;;;;;;;;;;;18.09;66.37;98066.69;1716874;80;24606;-84
2022/05/27 13:21:16;;;;;;;;;;;;;;;17.80;66.87;98063.14;1713783;83;20263;-86
2022/05/27 13:23:50;;;;;;;;;;;;;;;17.57;67.64;98067.33;1713417;82;24773;-85
2022/05/27 13:26:27;;;;;;;;;;;;;;;17.34;68.54;98063.63;1713609;83;22144;-89
2022/05/27 13:28:56;;;;;;;;;;;;;;;17.13;69.38;98083.33;1715327;83;25985;-89
2022/05/27 13:31:26;;;;;;;;;;;;;;;17.03;70.38;98079.14;1714127;83;24490;-89
2022/05/27 13:33:56;;;;;;;;;;;;;;;16.87;71.51;98082.51;1711352;83;20255;-87
2022/05/27 13:36:23;;;;;;;;;;;;;;;16.71;72.54;98089.84;1709085;83;24941;-87